Terminal Aerodrome Forecast
Issued by NWS Cleveland, OH

Home | Current Version | Previous Version | Text Only | Print | Product List | Glossary On
Versions: 1 2 3 4 5 6 7 8 9 10 11 12 13 14 15 16 17 18 19 20 21 22 23
000
FTUS41 KCLE 010400 AAA
TAFYNG
TAF AMD
KYNG 010427Z 0104/0124 22006KT P6SM OVC045
     FM010930 20005KT 4SM -SN SCT008 OVC035
     FM011100 18006KT 1SM -SN OVC008
     FM011600 12008KT 3/4SM -SN OVC006
     FM012200 09010KT 1/2SM SN OVC004=

USA.gov is the U.S. government's official web portal to all federal, state and local government web resources and services.